Time;durP1;ratioP1;P1;durP2;ratioP2;P2;SDS_P1;SDS_P2;PMS_P1;PMS_P2;Temp;Humidity;BMP_temperature;BMP_pressure;BME280_temperature;BME280_humidity;BME280_pressure;Samples;Min_cycle;Max_cycle;Signal;HPM_P1;HPM_P2
2022/09/24 00:00:51;;;;;;;73.78;66.43;;;13.60;99.90;;;;;;4923952;28;20143;-74
2022/09/24 00:03:22;;;;;;;69.72;62.80;;;13.60;99.90;;;;;;4926917;28;20383;-74
2022/09/24 00:05:48;;;;;;;80.25;72.05;;;13.60;99.90;;;;;;4929805;28;20047;-74
2022/09/24 00:08:16;;;;;;;76.07;68.38;;;13.60;99.90;;;;;;4932631;29;20572;-74
2022/09/24 00:10:43;;;;;;;83.20;74.60;;;13.60;99.90;;;;;;4926392;28;20055;-74
2022/09/24 00:13:11;;;;;;;81.30;73.03;;;13.60;99.90;;;;;;4923340;29;20052;-73
2022/09/24 00:15:43;;;;;;;89.47;79.78;;;13.60;99.90;;;;;;4922516;29;20070;-74
2022/09/24 00:18:14;;;;;;;110.53;88.35;;;13.60;99.90;;;;;;4938411;29;20044;-74
2022/09/24 00:20:40;;;;;;;75.72;68.13;;;13.60;99.90;;;;;;4914124;29;20555;-73
2022/09/24 00:23:08;;;;;;;85.72;76.68;;;13.60;99.90;;;;;;4910302;29;20050;-74
2022/09/24 00:28:28;;;;;;;88.60;79.07;;;13.60;99.90;;;;;;4930510;28;20075;-74
2022/09/24 00:30:57;;;;;;;96.10;82.63;;;13.60;99.90;;;;;;4916069;29;20135;-74
2022/09/24 00:33:23;;;;;;;75.32;67.97;;;13.70;99.90;;;;;;4941850;28;20050;-74
2022/09/24 00:35:51;;;;;;;70.05;63.33;;;13.70;99.90;;;;;;4910866;29;20043;-74
2022/09/24 00:38:18;;;;;;;74.15;66.85;;;13.70;99.90;;;;;;4910537;29;20472;-74
2022/09/24 00:40:43;;;;;;;79.93;72.00;;;13.70;99.90;;;;;;4895817;29;20516;-74
2022/09/24 00:43:28;;;;;;;79.78;71.90;;;13.70;99.90;;;;;;4916479;29;20048;-74
2022/09/24 00:46:06;;;;;;;87.78;78.55;;;13.70;99.90;;;;;;4916571;29;20490;-74
2022/09/24 00:48:33;;;;;;;85.50;76.38;;;13.70;99.90;;;;;;4929498;28;20051;-74
2022/09/24 00:51:03;;;;;;;78.93;71.22;;;13.70;99.90;;;;;;4926897;28;20055;-74
2022/09/24 00:53:32;;;;;;;91.55;81.95;;;13.70;99.90;;;;;;4916568;28;20058;-75
2022/09/24 00:56:00;;;;;;;115.50;89.78;;;13.70;99.90;;;;;;4927732;28;20058;-74
2022/09/24 00:58:28;;;;;;;94.63;84.60;;;13.70;99.90;;;;;;4928018;28;20441;-74
2022/09/24 01:01:03;;;;;;;82.90;74.53;;;13.70;99.90;;;;;;4898360;28;20113;-74
2022/09/24 01:03:31;;;;;;;103.63;85.20;;;13.70;99.90;;;;;;4932288;28;20056;-75
2022/09/24 01:05:57;;;;;;;81.78;73.20;;;13.70;99.90;;;;;;4931002;28;20132;-75
2022/09/24 01:08:23;;;;;;;88.22;79.35;;;13.70;99.90;;;;;;4918898;28;20043;-74
2022/09/24 01:11:22;;;;;;;89.88;80.30;;;13.70;99.90;;;;;;4908948;28;20478;-75
2022/09/24 01:14:15;;;;;;;84.40;75.57;;;13.70;99.90;;;;;;4910976;28;20062;-74
2022/09/24 01:16:56;;;;;;;92.03;80.00;;;13.70;99.90;;;;;;4909676;28;20050;-74
2022/09/24 01:19:39;;;;;;;84.70;75.95;;;13.70;99.90;;;;;;4926719;28;20036;-75
2022/09/24 01:22:26;;;;;;;79.78;71.53;;;13.70;99.90;;;;;;4942135;28;20098;-75
2022/09/24 01:24:52;;;;;;;100.43;86.80;;;13.60;99.90;;;;;;4921745;28;20126;-75
2022/09/24 01:27:29;;;;;;;81.13;72.63;;;13.70;99.90;;;;;;4925127;28;20154;-74
2022/09/24 01:30:05;;;;;;;81.68;73.18;;;13.70;99.90;;;;;;4919686;28;20496;-74
2022/09/24 01:32:56;;;;;;;84.90;76.00;;;13.60;99.90;;;;;;4929475;28;20090;-74
2022/09/24 01:35:47;;;;;;;84.40;75.65;;;13.70;99.90;;;;;;4924792;28;20110;-74
2022/09/24 01:38:27;;;;;;;85.38;76.38;;;13.60;99.90;;;;;;4904992;28;20106;-74
2022/09/24 01:40:54;;;;;;;93.10;83.07;;;13.60;99.90;;;;;;4895979;28;20051;-75
2022/09/24 01:43:24;;;;;;;77.32;69.65;;;13.60;99.90;;;;;;4908914;28;20044;-75
2022/09/24 01:45:51;;;;;;;80.88;72.55;;;13.60;99.90;;;;;;4911583;28;20395;-74
2022/09/24 01:48:20;;;;;;;81.78;73.25;;;13.60;99.90;;;;;;4886947;29;20064;-75
2022/09/24 01:50:54;;;;;;;89.20;79.65;;;13.60;99.90;;;;;;4905489;29;20466;-75
2022/09/24 01:53:24;;;;;;;81.22;73.03;;;13.60;99.90;;;;;;4914093;29;20051;-75
2022/09/24 01:55:57;;;;;;;82.88;74.38;;;13.60;99.90;;;;;;4919547;29;20082;-75
2022/09/24 01:58:30;;;;;;;83.05;74.18;;;13.60;99.90;;;;;;4927387;29;20094;-75
2022/09/24 02:01:04;;;;;;;77.70;69.57;;;13.60;99.90;;;;;;4934131;29;20054;-75
2022/09/24 02:03:35;;;;;;;86.25;77.43;;;13.60;99.90;;;;;;4919821;29;20052;-75
2022/09/24 02:06:09;;;;;;;142.20;97.60;;;13.60;99.90;;;;;;4925828;29;20053;-75
2022/09/24 02:08:45;;;;;;;89.88;80.03;;;13.60;99.90;;;;;;4914352;28;20044;-74
2022/09/24 02:11:24;;;;;;;86.57;77.40;;;13.60;99.90;;;;;;4924824;28;20114;-75
2022/09/24 02:13:55;;;;;;;85.15;75.80;;;13.60;99.90;;;;;;4924524;28;20725;-75
2022/09/24 02:16:25;;;;;;;184.93;102.45;;;13.60;99.90;;;;;;4938305;28;20046;-74
2022/09/24 02:18:53;;;;;;;85.65;76.25;;;13.60;99.90;;;;;;4924088;28;20047;-75
2022/09/24 02:21:22;;;;;;;87.72;78.50;;;13.60;99.90;;;;;;4922676;28;21363;-75
2022/09/24 02:24:15;;;;;;;87.38;77.65;;;13.60;99.90;;;;;;4937267;28;20130;-75
2022/09/24 02:26:41;;;;;;;88.93;79.13;;;13.60;99.90;;;;;;4935975;28;20055;-75
2022/09/24 02:29:07;;;;;;;83.75;74.47;;;13.60;99.90;;;;;;4920662;29;20043;-75
2022/09/24 02:31:38;;;;;;;80.57;72.28;;;13.60;99.90;;;;;;4926380;29;20122;-75
2022/09/24 02:34:19;;;;;;;78.35;70.00;;;13.60;99.90;;;;;;4938153;29;20062;-75
2022/09/24 02:36:51;;;;;;;82.38;73.95;;;13.60;99.90;;;;;;4914270;29;20055;-75
2022/09/24 02:39:18;;;;;;;86.05;76.80;;;13.60;99.90;;;;;;4936783;28;20058;-74
2022/09/24 02:41:48;;;;;;;87.72;76.03;;;13.60;99.90;;;;;;4932221;29;20043;-75
2022/09/24 02:44:15;;;;;;;89.05;79.55;;;13.60;99.90;;;;;;4933642;29;20047;-74
2022/09/24 02:46:42;;;;;;;87.18;77.70;;;13.60;99.90;;;;;;4913787;29;20383;-75
2022/09/24 02:49:09;;;;;;;96.70;83.43;;;13.60;99.90;;;;;;4905773;29;20135;-74
2022/09/24 02:51:35;;;;;;;93.60;82.90;;;13.50;99.90;;;;;;4893065;29;20047;-75
2022/09/24 02:54:02;;;;;;;83.40;74.53;;;13.60;99.90;;;;;;4880932;29;20514;-75
2022/09/24 02:56:28;;;;;;;93.65;83.25;;;13.50;99.90;;;;;;4884003;29;20086;-75
2022/09/24 02:58:54;;;;;;;85.05;75.28;;;13.50;99.90;;;;;;4913925;29;20043;-75
2022/09/24 03:01:21;;;;;;;82.18;73.15;;;13.40;99.90;;;;;;4895042;29;20055;-75
2022/09/24 03:03:47;;;;;;;79.82;71.40;;;13.40;99.90;;;;;;4916458;29;20254;-75
2022/09/24 03:06:13;;;;;;;163.73;99.45;;;13.40;99.90;;;;;;4916966;29;20114;-75
2022/09/24 03:08:41;;;;;;;141.45;94.32;;;13.40;99.90;;;;;;4924690;29;20036;-75
2022/09/24 03:11:09;;;;;;;79.80;71.10;;;13.40;99.90;;;;;;4906960;29;20554;-74
2022/09/24 03:13:38;;;;;;;80.57;71.95;;;13.40;99.90;;;;;;4904875;29;20055;-75
2022/09/24 03:16:05;;;;;;;83.22;73.68;;;13.40;99.90;;;;;;4880135;29;20123;-74
2022/09/24 03:18:32;;;;;;;71.43;63.80;;;13.40;99.90;;;;;;4918190;29;20051;-75
2022/09/24 03:21:11;;;;;;;241.82;110.10;;;13.40;99.90;;;;;;4895240;29;20051;-75
2022/09/24 03:23:37;;;;;;;238.10;109.70;;;13.40;99.90;;;;;;4901704;29;20090;-75
2022/09/24 03:26:04;;;;;;;186.32;102.25;;;13.40;99.90;;;;;;4904892;29;20044;-75
2022/09/24 03:28:29;;;;;;;92.93;76.70;;;13.40;99.90;;;;;;4910950;29;20114;-75
2022/09/24 03:31:01;;;;;;;95.50;72.90;;;13.40;99.90;;;;;;4899428;29;20479;-75
2022/09/24 03:33:33;;;;;;;85.53;75.28;;;13.40;99.90;;;;;;4892998;29;20077;-75
2022/09/24 03:36:26;;;;;;;79.32;70.72;;;13.40;99.90;;;;;;4936159;29;20375;-75
2022/09/24 03:38:55;;;;;;;113.03;79.25;;;13.40;99.90;;;;;;4887503;29;20055;-74
2022/09/24 03:41:21;;;;;;;86.20;74.38;;;13.40;99.90;;;;;;4897222;29;20055;-75
2022/09/24 03:43:47;;;;;;;99.50;79.57;;;13.40;99.90;;;;;;4920194;29;20043;-75
2022/09/24 03:46:15;;;;;;;82.20;71.50;;;13.40;99.90;;;;;;4904063;29;20047;-74
2022/09/24 03:48:41;;;;;;;82.05;73.07;;;13.40;99.90;;;;;;4921272;29;20055;-75
2022/09/24 03:51:14;;;;;;;124.28;85.25;;;13.30;99.90;;;;;;4903352;28;20050;-74
2022/09/24 03:53:40;;;;;;;80.20;71.25;;;13.40;99.90;;;;;;4932366;29;20046;-74
2022/09/24 03:56:06;;;;;;;81.68;71.47;;;13.40;99.90;;;;;;4934257;28;20075;-75
2022/09/24 03:58:37;;;;;;;79.95;71.30;;;13.40;99.90;;;;;;4929524;29;20043;-74
2022/09/24 04:01:07;;;;;;;77.03;67.72;;;13.40;99.90;;;;;;4924371;28;20070;-75
2022/09/24 04:03:33;;;;;;;90.93;76.00;;;13.40;99.90;;;;;;4928055;29;20047;-74
2022/09/24 04:05:59;;;;;;;79.35;70.10;;;13.40;99.90;;;;;;4913460;29;20521;-74
2022/09/24 04:08:25;;;;;;;98.20;77.68;;;13.30;99.90;;;;;;4920641;29;20099;-74
2022/09/24 04:10:50;;;;;;;75.35;66.85;;;13.40;99.90;;;;;;4945153;28;20058;-74
2022/09/24 04:13:17;;;;;;;82.70;71.82;;;13.40;99.90;;;;;;4927181;29;20059;-75
2022/09/24 04:15:43;;;;;;;75.65;67.55;;;13.40;99.90;;;;;;4938420;28;20549;-75
2022/09/24 04:18:10;;;;;;;84.75;71.60;;;13.40;99.90;;;;;;4911396;29;20044;-74
2022/09/24 04:20:36;;;;;;;113.72;79.28;;;13.40;99.90;;;;;;4900379;29;20135;-75
2022/09/24 04:23:02;;;;;;;72.47;64.68;;;13.40;99.90;;;;;;4925338;29;20126;-74
2022/09/24 04:25:30;;;;;;;89.18;73.00;;;13.40;99.90;;;;;;4917253;29;20473;-75
2022/09/24 04:28:07;;;;;;;82.75;73.30;;;13.40;99.90;;;;;;4922905;29;20151;-75
2022/09/24 04:30:34;;;;;;;98.03;79.35;;;13.40;99.90;;;;;;4922604;28;20051;-74
2022/09/24 04:33:01;;;;;;;87.30;73.97;;;13.40;99.90;;;;;;4924049;29;20515;-74
2022/09/24 04:35:29;;;;;;;160.23;92.65;;;13.40;99.90;;;;;;4918491;29;20055;-75
2022/09/24 04:37:56;;;;;;;72.95;64.97;;;13.40;99.90;;;;;;4916659;28;20050;-75
2022/09/24 04:40:22;;;;;;;87.72;72.50;;;13.40;99.90;;;;;;4930714;29;20061;-74
2022/09/24 04:42:47;;;;;;;88.07;74.60;;;13.40;99.90;;;;;;4930828;29;20434;-75
2022/09/24 04:45:18;;;;;;;86.53;72.85;;;13.40;99.90;;;;;;4946943;28;20054;-74
2022/09/24 04:47:58;;;;;;;93.35;75.90;;;13.40;99.90;;;;;;4905687;29;20390;-75
2022/09/24 04:50:32;;;;;;;73.33;65.43;;;13.40;99.90;;;;;;4900560;29;20546;-75
2022/09/24 04:52:58;;;;;;;82.35;70.50;;;13.40;99.90;;;;;;4922873;29;20335;-75
2022/09/24 04:55:24;;;;;;;87.97;75.07;;;13.40;99.90;;;;;;4924946;29;20040;-75
2022/09/24 04:57:51;;;;;;;96.13;76.22;;;13.40;99.90;;;;;;4914203;29;20051;-76
2022/09/24 05:00:20;;;;;;;91.35;76.22;;;13.40;99.90;;;;;;4917625;29;20048;-75
2022/09/24 05:02:46;;;;;;;72.45;63.20;;;13.40;99.90;;;;;;4919534;28;20063;-76
2022/09/24 05:05:12;;;;;;;92.28;75.47;;;13.40;99.90;;;;;;4939227;28;20508;-76
2022/09/24 05:07:39;;;;;;;84.10;73.78;;;13.40;99.90;;;;;;4928542;29;20051;-76
2022/09/24 05:10:06;;;;;;;84.25;71.55;;;13.40;99.90;;;;;;4927369;29;20047;-76
2022/09/24 05:12:34;;;;;;;93.35;76.07;;;13.40;99.90;;;;;;4899821;28;20059;-75
2022/09/24 05:15:00;;;;;;;81.25;70.25;;;13.40;99.90;;;;;;4899835;29;20080;-75
2022/09/24 05:17:25;;;;;;;115.30;80.07;;;13.40;99.90;;;;;;4903379;28;20040;-76
2022/09/24 05:19:51;;;;;;;132.00;84.30;;;13.40;99.90;;;;;;4898696;29;20173;-75
2022/09/24 05:22:17;;;;;;;85.95;72.20;;;13.40;99.90;;;;;;4909387;28;20047;-75
2022/09/24 05:24:42;;;;;;;74.68;66.50;;;13.40;99.90;;;;;;4924882;29;20075;-75
2022/09/24 05:27:09;;;;;;;88.55;69.85;;;13.40;99.90;;;;;;4918841;29;20046;-75
2022/09/24 05:29:42;;;;;;;77.70;68.15;;;13.40;99.90;;;;;;4903881;29;20446;-75
2022/09/24 05:32:14;;;;;;;90.00;75.07;;;13.40;99.90;;;;;;4916202;29;20048;-74
2022/09/24 05:34:42;;;;;;;87.15;73.70;;;13.40;99.90;;;;;;4929139;29;20043;-74
2022/09/24 05:37:09;;;;;;;95.65;75.35;;;13.40;99.90;;;;;;4907994;29;20130;-74
2022/09/24 05:39:34;;;;;;;352.70;115.10;;;13.40;99.90;;;;;;4921008;29;20124;-74
2022/09/24 05:42:03;;;;;;;148.95;91.72;;;13.40;99.90;;;;;;4914518;29;20052;-74
2022/09/24 05:44:31;;;;;;;83.30;70.35;;;13.40;99.90;;;;;;4919704;29;20557;-74
2022/09/24 05:46:58;;;;;;;247.68;89.78;;;13.40;99.90;;;;;;4925179;29;20043;-74
2022/09/24 05:49:24;;;;;;;85.93;69.20;;;13.40;99.90;;;;;;4914067;28;20079;-74
2022/09/24 05:51:51;;;;;;;92.90;75.25;;;13.40;99.90;;;;;;4932805;29;20046;-74
2022/09/24 05:54:18;;;;;;;93.10;74.40;;;13.40;99.90;;;;;;4914277;28;20086;-74
2022/09/24 05:56:44;;;;;;;327.17;107.97;;;13.40;99.90;;;;;;4928945;29;20525;-74
2022/09/24 05:59:10;;;;;;;86.07;72.00;;;13.40;99.90;;;;;;4921123;28;20078;-74
2022/09/24 06:01:36;;;;;;;83.38;68.88;;;13.40;99.90;;;;;;4914888;29;20141;-74
2022/09/24 06:04:02;;;;;;;99.70;75.65;;;13.40;99.90;;;;;;4929556;28;20039;-74
2022/09/24 06:06:27;;;;;;;82.38;66.47;;;13.40;99.90;;;;;;4933083;29;20067;-75
2022/09/24 06:08:54;;;;;;;69.03;59.03;;;13.40;99.90;;;;;;4910136;28;20394;-74
2022/09/24 06:11:23;;;;;;;266.75;95.10;;;13.30;99.90;;;;;;4912314;29;20051;-75
2022/09/24 06:13:50;;;;;;;102.65;70.10;;;13.30;99.90;;;;;;4910736;29;20462;-74
2022/09/24 06:16:16;;;;;;;197.60;76.53;;;13.30;99.90;;;;;;4930309;29;20235;-74
2022/09/24 06:18:43;;;;;;;59.92;53.53;;;13.30;99.90;;;;;;4923199;28;20063;-74
2022/09/24 06:21:14;;;;;;;59.47;51.88;;;13.30;99.90;;;;;;4930178;29;20051;-74
2022/09/24 06:23:40;;;;;;;69.38;56.53;;;13.30;99.90;;;;;;4914687;29;20769;-74
2022/09/24 06:26:08;;;;;;;142.85;70.75;;;13.30;99.90;;;;;;4913701;29;20039;-75
2022/09/24 06:28:35;;;;;;;54.08;48.67;;;13.30;99.90;;;;;;4915181;29;20133;-75
2022/09/24 06:31:01;;;;;;;114.13;61.22;;;13.30;99.90;;;;;;4930473;29;20098;-74
2022/09/24 06:33:27;;;;;;;78.35;55.00;;;13.30;99.90;;;;;;4932858;29;20047;-74
2022/09/24 06:35:53;;;;;;;47.90;42.80;;;13.40;99.90;;;;;;4933548;29;20039;-74
2022/09/24 06:38:19;;;;;;;132.73;63.85;;;13.40;99.90;;;;;;4928502;29;20050;-74
2022/09/24 06:40:47;;;;;;;73.50;53.45;;;13.40;99.90;;;;;;4925129;29;20475;-75
2022/09/24 06:43:13;;;;;;;45.95;40.50;;;13.40;99.90;;;;;;4915675;28;20043;-75
2022/09/24 06:45:41;;;;;;;50.22;42.47;;;13.50;99.90;;;;;;4943296;28;20046;-74
2022/09/24 06:48:09;;;;;;;59.47;47.08;;;13.50;99.90;;;;;;4923371;29;20054;-74
2022/09/24 06:50:39;;;;;;;44.47;39.75;;;13.50;99.90;;;;;;4932084;29;20046;-74
2022/09/24 06:53:06;;;;;;;48.03;41.90;;;13.60;99.90;;;;;;4925324;29;20047;-74
2022/09/24 06:55:33;;;;;;;115.47;57.88;;;13.60;99.90;;;;;;4947171;28;20462;-74
2022/09/24 06:58:11;;;;;;;251.93;77.97;;;13.60;99.90;;;;;;4913384;29;20051;-74
2022/09/24 07:00:38;;;;;;;66.50;46.95;;;13.70;99.90;;;;;;4925737;29;20055;-74
2022/09/24 07:03:05;;;;;;;89.13;55.67;;;13.70;99.90;;;;;;4921904;29;20125;-74
2022/09/24 07:05:32;;;;;;;116.60;60.60;;;13.80;99.90;;;;;;4914311;29;20130;-74
2022/09/24 07:07:58;;;;;;;156.65;66.25;;;13.80;99.90;;;;;;4925555;29;20125;-74
2022/09/24 07:10:26;;;;;;;227.52;77.47;;;13.80;99.90;;;;;;4915275;29;20578;-74
2022/09/24 07:12:52;;;;;;;51.47;43.53;;;13.80;99.90;;;;;;4918336;29;20050;-74
2022/09/24 07:15:17;;;;;;;48.10;41.55;;;13.80;99.90;;;;;;4905101;29;20051;-74
2022/09/24 07:17:43;;;;;;;45.58;39.45;;;13.80;99.90;;;;;;4931121;29;20041;-74
2022/09/24 07:20:09;;;;;;;57.55;44.47;;;13.80;99.90;;;;;;4918279;29;20043;-74
2022/09/24 07:22:40;;;;;;;31.15;23.83;;;13.90;99.90;;;;;;4927683;28;20069;-75
2022/09/24 07:25:08;;;;;;;28.83;24.40;;;13.90;99.90;;;;;;4923934;29;20050;-74
2022/09/24 07:27:34;;;;;;;34.78;30.02;;;13.90;99.90;;;;;;4930988;29;20065;-75
2022/09/24 07:29:59;;;;;;;33.40;29.08;;;13.90;99.90;;;;;;4918465;29;20047;-75
2022/09/24 07:32:25;;;;;;;42.75;30.50;;;13.90;99.90;;;;;;4898187;29;20498;-74
2022/09/24 07:34:53;;;;;;;57.63;36.53;;;13.90;99.90;;;;;;4936847;29;20042;-75
2022/09/24 07:37:19;;;;;;;64.18;38.25;;;13.90;99.90;;;;;;4929598;29;20071;-75
2022/09/24 07:39:45;;;;;;;39.22;29.60;;;13.90;99.90;;;;;;4929471;29;20039;-75
2022/09/24 07:42:11;;;;;;;35.72;28.77;;;14.00;99.90;;;;;;4907101;29;20042;-75
2022/09/24 07:44:37;;;;;;;40.78;31.50;;;14.00;99.90;;;;;;4929118;29;20051;-75
2022/09/24 07:47:03;;;;;;;43.38;32.78;;;14.00;99.90;;;;;;4927192;29;20078;-75
2022/09/24 07:49:31;;;;;;;37.83;25.05;;;14.00;99.90;;;;;;4917667;29;20395;-74
2022/09/24 07:51:57;;;;;;;43.30;26.05;;;14.10;99.90;;;;;;4912154;29;20059;-75
2022/09/24 07:54:23;;;;;;;31.23;22.33;;;14.10;99.90;;;;;;4912311;29;20494;-75
2022/09/24 07:56:49;;;;;;;21.45;14.05;;;14.10;99.90;;;;;;4904824;29;20058;-75
2022/09/24 07:59:14;;;;;;;22.40;8.85;;;14.10;99.90;;;;;;4927631;29;20036;-74
2022/09/24 08:01:40;;;;;;;20.00;9.15;;;14.10;99.90;;;;;;4922898;29;20051;-75
2022/09/24 08:04:06;;;;;;;18.92;6.95;;;14.10;99.90;;;;;;4903152;29;20398;-75
2022/09/24 08:06:35;;;;;;;18.55;5.70;;;14.20;99.90;;;;;;4920100;29;20101;-75
2022/09/24 08:09:02;;;;;;;17.25;4.47;;;14.20;99.90;;;;;;4914608;29;20035;-75
2022/09/24 08:11:32;;;;;;;15.10;4.72;;;14.20;99.90;;;;;;4928750;29;20466;-75
2022/09/24 08:13:57;;;;;;;16.65;4.55;;;14.20;99.90;;;;;;4908180;29;20457;-75
2022/09/24 08:16:25;;;;;;;14.73;3.72;;;14.30;99.90;;;;;;4919402;29;20138;-75
2022/09/24 08:18:51;;;;;;;15.52;3.80;;;14.30;99.90;;;;;;4911163;29;20118;-76
2022/09/24 08:21:17;;;;;;;19.60;3.13;;;14.40;99.90;;;;;;4911440;29;20043;-75
2022/09/24 08:23:43;;;;;;;14.45;3.70;;;14.50;99.90;;;;;;4920119;29;20049;-75
2022/09/24 08:26:10;;;;;;;14.30;2.72;;;14.50;99.90;;;;;;4925075;29;20126;-78
2022/09/24 08:28:37;;;;;;;15.43;3.30;;;14.60;99.90;;;;;;4924762;29;20071;-75
2022/09/24 08:31:10;;;;;;;14.00;2.88;;;14.70;99.90;;;;;;4923035;29;20127;-76
2022/09/24 08:33:36;;;;;;;9.77;2.75;;;14.70;99.90;;;;;;4913967;28;20047;-76
2022/09/24 08:36:05;;;;;;;11.45;2.67;;;14.70;99.90;;;;;;4926780;29;20043;-76
2022/09/24 08:38:31;;;;;;;12.65;3.03;;;14.70;99.90;;;;;;4924173;29;20424;-76
2022/09/24 08:41:03;;;;;;;9.05;2.35;;;14.80;99.90;;;;;;4893659;28;20055;-76
2022/09/24 08:43:47;;;;;;;7.82;1.77;;;14.80;99.90;;;;;;4938472;28;20094;-76
2022/09/24 08:49:11;;;;;;;8.90;1.75;;;14.80;99.90;;;;;;4927404;28;20055;-76
2022/09/24 08:51:59;;;;;;;8.20;1.70;;;14.80;99.90;;;;;;4912916;29;20040;-77
2022/09/24 08:54:28;;;;;;;8.02;1.90;;;14.80;99.90;;;;;;4927062;28;20047;-76
2022/09/24 08:56:56;;;;;;;7.57;1.55;;;14.90;99.90;;;;;;4923915;29;20055;-80
2022/09/24 08:59:31;;;;;;;5.72;1.77;;;14.90;99.90;;;;;;4906834;29;20048;-76
2022/09/24 09:02:18;;;;;;;7.30;2.17;;;14.90;99.90;;;;;;4924957;29;20035;-75
2022/09/24 09:05:26;;;;;;;7.85;1.60;;;15.00;99.90;;;;;;4924490;29;20114;-76
2022/09/24 09:07:57;;;;;;;6.80;1.50;;;15.00;99.90;;;;;;4924596;28;20189;-77
2022/09/24 09:10:28;;;;;;;7.80;1.38;;;15.00;99.90;;;;;;4921207;29;20040;-76
2022/09/24 09:12:59;;;;;;;6.38;1.15;;;15.00;99.90;;;;;;4927728;29;20397;-76
2022/09/24 09:15:31;;;;;;;8.30;1.63;;;15.00;99.90;;;;;;4915862;29;20166;-77
2022/09/24 09:18:05;;;;;;;5.47;1.33;;;15.00;99.90;;;;;;4931846;29;20114;-77
2022/09/24 09:20:45;;;;;;;6.55;1.60;;;15.00;99.90;;;;;;4918394;28;20518;-76
2022/09/24 09:23:15;;;;;;;6.63;2.00;;;15.10;99.90;;;;;;4899233;29;20038;-77
2022/09/24 09:25:51;;;;;;;6.85;1.70;;;15.10;99.90;;;;;;4916278;29;20051;-77
2022/09/24 09:28:17;;;;;;;8.27;2.00;;;15.10;99.90;;;;;;4920023;29;20522;-77
2022/09/24 09:30:57;;;;;;;10.68;1.92;;;15.20;99.90;;;;;;4924954;29;20571;-76
2022/09/24 09:34:07;;;;;;;10.65;2.00;;;15.20;99.90;;;;;;4925795;28;20395;-77
2022/09/24 09:37:02;;;;;;;10.40;2.05;;;15.20;99.90;;;;;;4920629;29;20052;-77
2022/09/24 09:39:42;;;;;;;10.40;2.10;;;15.20;99.90;;;;;;4881189;29;20055;-77
2022/09/24 09:42:31;;;;;;;10.75;2.22;;;15.30;99.90;;;;;;4930315;29;20078;-77
2022/09/24 09:45:00;;;;;;;10.48;2.47;;;15.30;99.90;;;;;;4922027;29;20040;-79
2022/09/24 09:47:54;;;;;;;12.43;2.42;;;15.30;99.90;;;;;;4924497;28;20056;-78
2022/09/24 09:50:41;;;;;;;13.27;2.45;;;15.30;99.90;;;;;;4939207;28;20126;-78
2022/09/24 09:53:18;;;;;;;13.90;2.83;;;15.20;99.90;;;;;;4925655;29;20055;-78
2022/09/24 09:55:52;;;;;;;10.90;2.38;;;15.20;99.90;;;;;;4920468;29;20506;-78
2022/09/24 09:58:22;;;;;;;12.02;3.08;;;15.10;99.90;;;;;;4937294;28;20454;-78
2022/09/24 10:00:49;;;;;;;14.48;3.00;;;15.10;99.90;;;;;;4924025;29;20055;-77
2022/09/24 10:03:25;;;;;;;12.27;2.97;;;15.00;99.90;;;;;;4921473;29;20035;-78
2022/09/24 10:06:00;;;;;;;11.18;2.53;;;15.00;99.90;;;;;;4920880;29;20075;-77
2022/09/24 10:08:27;;;;;;;12.63;2.40;;;15.00;99.90;;;;;;4904867;29;20502;-77
2022/09/24 10:10:58;;;;;;;13.85;2.78;;;14.90;99.90;;;;;;4935102;28;20044;-77
2022/09/24 10:13:25;;;;;;;13.23;2.50;;;14.90;99.90;;;;;;4923034;29;20063;-77
2022/09/24 10:15:57;;;;;;;12.93;2.65;;;14.90;99.90;;;;;;4921968;28;20051;-78
2022/09/24 10:18:33;;;;;;;9.60;2.88;;;14.90;99.90;;;;;;4920802;29;20078;-77
2022/09/24 10:21:04;;;;;;;11.95;2.08;;;14.90;99.90;;;;;;4939039;28;20078;-77
2022/09/24 10:23:42;;;;;;;;;;;14.80;99.90;;;;;;4925047;29;20101;-77
2022/09/24 10:26:09;;;;;;;10.40;2.78;;;14.80;99.90;;;;;;4917367;29;20262;-78
2022/09/24 10:31:40;;;;;;;10.57;2.17;;;14.80;99.90;;;;;;4933872;28;20043;-77
2022/09/24 10:34:23;;;;;;;9.20;1.80;;;14.80;99.90;;;;;;4914730;29;20055;-77
2022/09/24 10:36:51;;;;;;;11.15;1.67;;;14.80;99.90;;;;;;4928780;29;20351;-78
2022/09/24 10:39:17;;;;;;;7.40;1.67;;;14.80;99.90;;;;;;4923121;28;20407;-77
2022/09/24 10:41:51;;;;;;;8.30;1.50;;;14.80;99.90;;;;;;4915568;29;20048;-77
2022/09/24 10:44:19;;;;;;;7.78;1.15;;;14.80;99.90;;;;;;4929225;29;20113;-78
2022/09/24 10:47:21;;;;;;;6.30;1.05;;;14.80;99.90;;;;;;4919810;29;20518;-79
2022/09/24 10:50:05;;;;;;;4.70;1.00;;;14.80;99.90;;;;;;4922195;29;20219;-79
2022/09/24 10:52:33;;;;;;;5.05;0.90;;;14.80;99.90;;;;;;4935253;28;20513;-79
2022/09/24 10:55:18;;;;;;;5.40;0.90;;;14.80;99.90;;;;;;4921051;29;20051;-80
2022/09/24 10:58:24;;;;;;;4.75;1.05;;;14.80;99.90;;;;;;4917611;29;20457;-80
2022/09/24 11:01:11;;;;;;;4.50;0.82;;;14.80;99.90;;;;;;4917220;29;20066;-77
2022/09/24 11:03:59;;;;;;;2.88;0.90;;;14.80;99.90;;;;;;4920867;28;20191;-79
2022/09/24 11:06:59;;;;;;;5.72;1.02;;;14.70;99.90;;;;;;4913490;29;20433;-79
2022/09/24 11:09:53;;;;;;;5.00;1.00;;;14.70;99.90;;;;;;4910234;29;20051;-78
2022/09/24 11:12:30;;;;;;;4.43;1.23;;;14.70;99.90;;;;;;4919194;29;20557;-77
2022/09/24 11:15:33;;;;;;;5.35;1.20;;;14.70;99.90;;;;;;4922677;28;20150;-78
2022/09/24 11:18:12;;;;;;;4.35;0.85;;;14.70;99.90;;;;;;4919730;28;20043;-79
2022/09/24 11:20:51;;;;;;;5.50;0.93;;;14.70;99.90;;;;;;4927824;29;20051;-78
2022/09/24 11:24:05;;;;;;;4.88;0.80;;;14.70;99.90;;;;;;4942334;28;20051;-78
2022/09/24 11:26:50;;;;;;;3.60;0.85;;;14.70;99.90;;;;;;4899744;29;20063;-79
2022/09/24 11:29:34;;;;;;;3.80;0.88;;;14.80;99.90;;;;;;4930480;28;20068;-78
2022/09/24 11:32:37;;;;;;;3.45;0.80;;;14.80;99.90;;;;;;4930826;28;20089;-78
2022/09/24 11:35:24;;;;;;;3.60;0.85;;;14.90;99.90;;;;;;4921948;28;20040;-78
2022/09/24 11:38:01;;;;;;;4.43;1.13;;;14.90;99.90;;;;;;4914124;28;20055;-79
2022/09/24 11:40:45;;;;;;;3.78;1.00;;;14.90;99.90;;;;;;4915337;29;20491;-78
2022/09/24 11:43:31;;;;;;;3.28;1.10;;;14.90;99.90;;;;;;4918254;29;20094;-78
2022/09/24 11:46:24;;;;;;;5.03;0.80;;;14.90;99.90;;;;;;4934158;28;20051;-79
2022/09/24 11:49:09;;;;;;;5.53;1.17;;;15.00;99.90;;;;;;4915839;29;20055;-79
2022/09/24 11:51:46;;;;;;;4.22;0.93;;;15.00;99.90;;;;;;4937346;28;20066;-77
2022/09/24 11:54:18;;;;;;;6.95;1.10;;;15.00;99.90;;;;;;4910301;29;20061;-78
2022/09/24 11:56:48;;;;;;;5.00;1.05;;;15.00;99.90;;;;;;4925062;29;20051;-79
2022/09/24 11:59:23;;;;;;;4.13;0.98;;;15.10;99.90;;;;;;4905513;29;20739;-78
2022/09/24 12:01:57;;;;;;;5.20;0.88;;;15.10;99.90;;;;;;4933962;28;20064;-79
2022/09/24 12:04:33;;;;;;;4.85;1.10;;;15.10;99.90;;;;;;4904507;28;20406;-78
2022/09/24 12:07:06;;;;;;;5.75;1.00;;;15.00;99.90;;;;;;4916794;29;21002;-77
2022/09/24 12:09:37;;;;;;;5.07;1.10;;;15.00;99.90;;;;;;4910613;29;20039;-78
2022/09/24 12:12:26;;;;;;;6.40;1.08;;;15.10;99.90;;;;;;4940642;28;20393;-79
2022/09/24 12:15:00;;;;;;;6.88;1.45;;;15.00;99.90;;;;;;4918742;29;20043;-82
2022/09/24 12:17:49;;;;;;;6.03;1.20;;;15.00;99.90;;;;;;4946018;28;20070;-79
2022/09/24 12:20:20;;;;;;;5.88;1.10;;;15.00;99.90;;;;;;4920626;29;20056;-80
2022/09/24 12:22:58;;;;;;;5.30;1.10;;;15.00;99.90;;;;;;4941908;28;20130;-79
2022/09/24 12:25:31;;;;;;;6.72;1.30;;;15.00;99.90;;;;;;4940239;29;20054;-79
2022/09/24 12:27:59;;;;;;;4.70;1.08;;;15.00;99.90;;;;;;4925671;29;20082;-79
2022/09/24 12:33:30;;;;;;;7.40;1.45;;;15.10;99.90;;;;;;4916951;29;20048;-79
2022/09/24 12:36:05;;;;;;;7.35;1.55;;;15.00;99.90;;;;;;4927915;29;20047;-79
2022/09/24 12:38:36;;;;;;;6.32;1.60;;;14.90;99.90;;;;;;4941870;28;20055;-79
2022/09/24 12:41:33;;;;;;;12.30;1.98;;;14.90;99.90;;;;;;4914699;28;20039;-80
2022/09/24 12:44:10;;;;;;;5.63;1.05;;;14.90;99.90;;;;;;4916652;29;20040;-78
2022/09/24 12:46:40;;;;;;;7.20;1.50;;;14.80;99.90;;;;;;4931714;28;20392;-79
2022/09/24 12:49:24;;;;;;;5.82;1.42;;;14.80;99.90;;;;;;4936673;28;20055;-78
2022/09/24 12:51:56;;;;;;;7.10;1.52;;;14.70;99.90;;;;;;4904242;28;20078;-80
2022/09/24 12:54:29;;;;;;;5.20;1.30;;;14.60;99.90;;;;;;4921287;29;20048;-78
2022/09/24 12:57:09;;;;;;;6.82;1.50;;;14.60;99.90;;;;;;4908230;29;20055;-78
2022/09/24 12:59:45;;;;;;;;;;;14.50;99.90;;;;;;4922573;29;20528;-78
2022/09/24 13:02:18;;;;;;;5.63;1.75;;;14.50;99.90;;;;;;4918677;29;19926;-79
2022/09/24 13:05:10;;;;;;;5.60;1.60;;;14.50;99.90;;;;;;4911021;28;20478;-79
2022/09/24 13:07:40;;;;;;;5.20;1.80;;;14.50;99.90;;;;;;4926595;29;20470;-78
2022/09/24 13:10:17;;;;;;;7.35;1.40;;;14.50;99.90;;;;;;4909245;29;20039;-78